Time;durP1;ratioP1;P1;durP2;ratioP2;P2;SDS_P1;SDS_P2;PMS_P1;PMS_P2;Temp;Humidity;BMP_temperature;BMP_pressure;BME280_temperature;BME280_humidity;BME280_pressure;Samples;Min_cycle;Max_cycle;Signal;HPM_P1;HPM_P2
2022/04/28 00:02:00;;;;;;;3.97;2.97;;;5.30;99.90;;;;;;5036818;28;20063;-32
2022/04/28 00:04:26;;;;;;;5.80;3.90;;;5.20;99.90;;;;;;5036485;28;20094;-32
2022/04/28 00:06:51;;;;;;;7.38;5.05;;;4.90;99.90;;;;;;5035021;28;20024;-32
2022/04/28 00:09:17;;;;;;;6.10;4.63;;;4.70;99.90;;;;;;5036748;28;20040;-32
2022/04/28 00:11:43;;;;;;;7.97;5.22;;;4.70;99.90;;;;;;5032948;28;20036;-32
2022/04/28 00:14:08;;;;;;;8.43;6.00;;;4.70;99.90;;;;;;5034890;28;20051;-32
2022/04/28 00:16:35;;;;;;;7.32;5.22;;;4.70;99.90;;;;;;5038811;28;20032;-33
2022/04/28 00:19:02;;;;;;;8.13;5.03;;;4.60;99.90;;;;;;5033121;28;20040;-32
2022/04/28 00:21:28;;;;;;;9.32;6.20;;;4.50;99.90;;;;;;5036519;28;20040;-32
2022/04/28 00:23:53;;;;;;;9.52;5.75;;;4.60;99.90;;;;;;5037315;28;20420;-32
2022/04/28 00:26:20;;;;;;;10.85;6.47;;;4.70;99.90;;;;;;5038034;28;20032;-32
2022/04/28 00:28:46;;;;;;;11.05;6.05;;;4.70;99.90;;;;;;5041195;28;20104;-32
2022/04/28 00:31:12;;;;;;;9.85;6.50;;;4.80;99.90;;;;;;5039817;28;20120;-33
2022/04/28 00:33:38;;;;;;;9.18;6.28;;;4.70;99.90;;;;;;5040781;28;20090;-33
2022/04/28 00:36:04;;;;;;;10.05;5.93;;;4.70;99.90;;;;;;5039971;28;20040;-34
2022/04/28 00:38:29;;;;;;;10.00;5.93;;;4.80;99.90;;;;;;5038184;28;20040;-32
2022/04/28 00:40:55;;;;;;;8.60;4.95;;;4.80;99.90;;;;;;5039965;28;20033;-33
2022/04/28 00:43:28;;;;;;;7.55;4.82;;;4.70;99.90;;;;;;5046075;28;20041;-32
2022/04/28 00:45:56;;;;;;;8.07;5.03;;;4.70;99.90;;;;;;5039060;28;20029;-33
2022/04/28 00:51:08;;;;;;;11.25;6.20;;;4.50;99.90;;;;;;5039772;28;20048;-34
2022/04/28 00:53:40;;;;;;;7.75;5.47;;;4.10;99.90;;;;;;5041040;28;20033;-32
2022/04/28 00:56:06;;;;;;;9.38;5.72;;;3.90;99.90;;;;;;5036314;28;20039;-32
2022/04/28 00:58:32;;;;;;;6.78;5.05;;;4.10;99.90;;;;;;5040580;28;20028;-32
2022/04/28 01:00:58;;;;;;;10.40;6.30;;;4.20;99.90;;;;;;5037886;28;20041;-32
2022/04/28 01:03:24;;;;;;;9.00;5.80;;;4.30;99.90;;;;;;5037883;28;20041;-32
2022/04/28 01:05:50;;;;;;;11.57;6.20;;;4.40;99.90;;;;;;5042675;28;20099;-32
2022/04/28 01:08:16;;;;;;;10.75;6.07;;;4.40;99.90;;;;;;5039628;28;20043;-32
2022/04/28 01:10:41;;;;;;;10.77;6.13;;;4.40;99.90;;;;;;5037898;28;20021;-32
2022/04/28 01:13:07;;;;;;;11.57;7.65;;;4.40;99.90;;;;;;5037288;28;20025;-32
2022/04/28 01:15:47;;;;;;;8.55;5.65;;;4.40;99.90;;;;;;5037419;28;20381;-33
2022/04/28 01:18:14;;;;;;;10.95;6.70;;;4.30;99.90;;;;;;5042172;28;20024;-33
2022/04/28 01:20:40;;;;;;;9.50;5.68;;;4.30;99.90;;;;;;5038268;28;20060;-33
2022/04/28 01:23:06;;;;;;;10.48;6.10;;;4.30;99.90;;;;;;5037817;28;20025;-32
2022/04/28 01:25:32;;;;;;;8.30;5.15;;;4.30;99.90;;;;;;5039557;28;20055;-33
2022/04/28 01:27:58;;;;;;;6.95;4.85;;;4.30;99.90;;;;;;5038133;28;20116;-33
2022/04/28 01:30:24;;;;;;;5.50;4.45;;;4.40;99.90;;;;;;5040818;28;20047;-32
2022/04/28 01:32:51;;;;;;;6.25;4.47;;;4.40;99.90;;;;;;5036783;28;20041;-32
2022/04/28 01:35:17;;;;;;;5.72;4.28;;;4.50;99.90;;;;;;5040137;28;20120;-32
2022/04/28 01:37:43;;;;;;;8.32;4.40;;;4.50;99.90;;;;;;5037563;28;20062;-33
2022/04/28 01:40:11;;;;;;;4.20;3.45;;;4.50;99.90;;;;;;5038101;28;20025;-34
2022/04/28 01:42:38;;;;;;;;;;;4.50;99.90;;;;;;5038539;28;20118;-32
2022/04/28 01:45:06;;;;;;;2.88;2.63;;;4.50;99.90;;;;;;5037389;28;19927;-32
2022/04/28 01:47:31;;;;;;;3.72;3.22;;;4.50;99.90;;;;;;5037375;28;20040;-33
2022/04/28 01:49:57;;;;;;;3.88;3.13;;;4.40;99.90;;;;;;5042094;28;20028;-32
2022/04/28 01:55:07;;;;;;;4.90;3.63;;;4.40;99.90;;;;;;5031965;28;20573;-32
2022/04/28 01:57:33;;;;;;;4.68;3.60;;;4.40;99.90;;;;;;5037329;28;20036;-32
2022/04/28 01:59:59;;;;;;;6.13;3.78;;;4.30;99.90;;;;;;5037321;28;20033;-33
2022/04/28 02:02:25;;;;;;;4.93;3.95;;;4.30;99.90;;;;;;5034624;28;20032;-32
2022/04/28 02:04:50;;;;;;;4.03;3.33;;;4.30;99.90;;;;;;5035106;28;20577;-32
2022/04/28 02:07:16;;;;;;;4.00;3.60;;;4.30;99.90;;;;;;5043784;28;20028;-33
2022/04/28 02:09:43;;;;;;;4.18;3.58;;;4.30;99.90;;;;;;5039868;28;20758;-32
2022/04/28 02:12:10;;;;;;;4.65;3.53;;;4.30;99.90;;;;;;5043013;28;20025;-33
2022/04/28 02:14:37;;;;;;;5.20;3.33;;;4.30;99.90;;;;;;5040709;28;20566;-32
2022/04/28 02:17:06;;;;;;;4.38;3.55;;;4.30;99.90;;;;;;5037886;28;20123;-32
2022/04/28 02:19:32;;;;;;;4.00;3.28;;;4.30;99.90;;;;;;5037583;28;20066;-32
2022/04/28 02:21:58;;;;;;;3.67;3.05;;;4.20;99.90;;;;;;5042278;28;20116;-33
2022/04/28 02:24:24;;;;;;;4.25;3.40;;;4.10;99.90;;;;;;5037278;28;20075;-32
2022/04/28 02:26:49;;;;;;;3.50;3.05;;;4.10;99.90;;;;;;5039115;28;20032;-32
2022/04/28 02:29:16;;;;;;;3.15;2.72;;;4.10;99.90;;;;;;5038273;28;20132;-32
2022/04/28 02:31:41;;;;;;;5.68;3.63;;;4.10;99.90;;;;;;5039205;28;20037;-32
2022/04/28 02:34:07;;;;;;;4.05;3.60;;;4.10;99.90;;;;;;5037003;28;20044;-32
2022/04/28 02:36:32;;;;;;;5.10;3.90;;;4.00;99.90;;;;;;5034369;28;20037;-32
2022/04/28 02:38:58;;;;;;;3.17;2.78;;;4.00;99.90;;;;;;5042904;28;20517;-32
2022/04/28 02:41:23;;;;;;;2.97;2.67;;;4.00;99.90;;;;;;5037165;28;20033;-33
2022/04/28 02:43:50;;;;;;;3.03;2.58;;;3.90;99.90;;;;;;5036469;28;21319;-32
2022/04/28 02:46:16;;;;;;;2.17;2.08;;;3.90;99.90;;;;;;5041317;28;20021;-32
2022/04/28 02:48:42;;;;;;;2.50;2.30;;;3.80;99.90;;;;;;5039029;28;20094;-33
2022/04/28 02:51:07;;;;;;;2.33;1.92;;;3.80;99.90;;;;;;5037833;28;20029;-32
2022/04/28 02:53:34;;;;;;;2.15;1.98;;;3.80;99.90;;;;;;5039846;28;20823;-32
2022/04/28 02:56:00;;;;;;;1.98;1.88;;;3.60;99.90;;;;;;5042080;28;20545;-32
2022/04/28 02:58:26;;;;;;;2.00;1.90;;;3.50;99.90;;;;;;5036377;28;20029;-32
2022/04/28 03:00:51;;;;;;;1.83;1.73;;;3.50;99.90;;;;;;5038282;28;20061;-32
2022/04/28 03:03:17;;;;;;;1.73;1.63;;;3.40;99.90;;;;;;5035165;28;20093;-32
2022/04/28 03:11:11;;;;;;;3.25;2.42;;;3.40;99.90;;;;;;5041089;28;20441;-33
2022/04/28 03:13:38;;;;;;;2.00;1.90;;;3.40;99.90;;;;;;5034948;28;20036;-32
2022/04/28 03:16:05;;;;;;;2.40;2.30;;;3.50;99.90;;;;;;5037182;28;20029;-32
2022/04/28 03:18:30;;;;;;;2.95;2.38;;;3.50;99.90;;;;;;5035970;28;20397;-33
2022/04/28 03:20:56;;;;;;;2.50;2.30;;;3.50;99.90;;;;;;5038972;28;20044;-32
2022/04/28 03:23:23;;;;;;;2.08;1.98;;;3.50;99.90;;;;;;5041250;28;20036;-32
2022/04/28 03:25:51;;;;;;;1.98;1.85;;;3.40;99.90;;;;;;5033543;28;20052;-32
2022/04/28 03:28:18;;;;;;;2.25;2.15;;;3.30;99.90;;;;;;5038346;28;20033;-33
2022/04/28 03:30:43;;;;;;;2.55;2.28;;;3.20;99.90;;;;;;5037556;28;20682;-33
2022/04/28 03:33:09;;;;;;;8.38;2.78;;;3.10;99.90;;;;;;5034097;28;20025;-32
2022/04/28 03:35:35;;;;;;;6.32;3.63;;;2.90;99.90;;;;;;5038442;28;20067;-33
2022/04/28 03:38:01;;;;;;;3.30;2.65;;;2.80;99.90;;;;;;5036669;28;20492;-32
2022/04/28 03:40:27;;;;;;;2.70;2.50;;;2.90;99.90;;;;;;5036919;28;20025;-32
2022/04/28 03:42:52;;;;;;;2.45;2.13;;;3.00;99.90;;;;;;5038767;28;20041;-32
2022/04/28 03:45:18;;;;;;;2.45;2.25;;;3.10;99.90;;;;;;5033993;28;20036;-32
2022/04/28 03:47:44;;;;;;;2.20;2.00;;;3.10;99.90;;;;;;5037105;28;20162;-32
2022/04/28 03:50:09;;;;;;;2.15;2.00;;;3.10;99.90;;;;;;5038806;28;20021;-32
2022/04/28 03:52:35;;;;;;;3.80;2.97;;;3.10;99.90;;;;;;5033454;28;20033;-32
2022/04/28 03:55:02;;;;;;;4.32;3.38;;;3.10;99.90;;;;;;5035766;28;20048;-32
2022/04/28 03:57:28;;;;;;;2.55;2.10;;;3.10;99.90;;;;;;5037967;28;20032;-32
2022/04/28 03:59:56;;;;;;;2.53;2.33;;;3.10;99.90;;;;;;5037627;28;20029;-32
2022/04/28 04:02:21;;;;;;;3.08;2.25;;;3.10;99.90;;;;;;5040896;28;20044;-32
2022/04/28 04:04:47;;;;;;;2.75;2.47;;;3.00;99.90;;;;;;5038823;28;20377;-33
2022/04/28 04:07:13;;;;;;;3.25;2.70;;;3.00;99.90;;;;;;5038523;28;20029;-33
2022/04/28 04:09:38;;;;;;;4.28;3.00;;;2.90;99.90;;;;;;5040913;28;20036;-33
2022/04/28 04:12:05;;;;;;;4.90;3.47;;;2.80;99.90;;;;;;5040283;28;20121;-32
2022/04/28 04:14:32;;;;;;;5.78;3.63;;;2.80;99.90;;;;;;5042294;28;20040;-33
2022/04/28 04:16:58;;;;;;;5.03;3.67;;;2.80;99.90;;;;;;5042157;28;20546;-33
2022/04/28 04:19:24;;;;;;;3.08;2.50;;;2.90;99.90;;;;;;5040258;28;20038;-32
2022/04/28 04:21:50;;;;;;;2.20;2.05;;;2.80;99.90;;;;;;5042558;28;20474;-33
2022/04/28 04:24:15;;;;;;;2.35;2.15;;;2.90;99.90;;;;;;5038046;28;20025;-32
2022/04/28 04:26:41;;;;;;;3.05;2.10;;;2.90;99.90;;;;;;5040280;28;20049;-33
2022/04/28 04:29:07;;;;;;;2.40;2.20;;;2.90;99.90;;;;;;5039601;28;20391;-32
2022/04/28 04:32:18;;;;;;;2.00;1.80;;;2.90;99.90;;;;;;5041142;28;20397;-32
2022/04/28 04:34:18;;;;;;;1.92;1.83;;;2.90;99.90;;;;;;5027656;28;20123;-32
2022/04/28 04:36:44;;;;;;;2.17;2.05;;;2.90;99.90;;;;;;5038065;28;20059;-32
2022/04/28 04:39:09;;;;;;;3.15;2.63;;;2.90;99.90;;;;;;5041718;28;20550;-33
2022/04/28 04:41:35;;;;;;;3.10;2.40;;;2.80;99.90;;;;;;5044188;28;20037;-32
2022/04/28 04:44:00;;;;;;;1.95;1.83;;;2.80;99.90;;;;;;5038616;28;20115;-33
2022/04/28 04:46:26;;;;;;;1.60;1.50;;;2.90;99.90;;;;;;5040608;28;20029;-32
2022/04/28 04:48:52;;;;;;;1.92;1.83;;;2.90;99.90;;;;;;5043465;28;20083;-33
2022/04/28 04:51:17;;;;;;;1.98;1.88;;;2.90;99.90;;;;;;5040141;28;20056;-32
2022/04/28 04:53:43;;;;;;;1.80;1.70;;;2.90;99.90;;;;;;5044001;28;20037;-33
2022/04/28 04:56:08;;;;;;;3.17;2.33;;;3.00;99.90;;;;;;5038852;28;20025;-32
2022/04/28 04:58:34;;;;;;;1.73;1.63;;;3.00;99.90;;;;;;5031862;28;20044;-33
2022/04/28 05:01:01;;;;;;;2.45;1.92;;;3.00;99.90;;;;;;5041468;28;20035;-32
2022/04/28 05:03:27;;;;;;;2.30;2.20;;;3.00;99.90;;;;;;5038842;28;20064;-32
2022/04/28 05:05:53;;;;;;;2.92;2.72;;;3.10;99.90;;;;;;5036803;28;20159;-32
2022/04/28 05:08:18;;;;;;;3.45;2.70;;;3.10;99.90;;;;;;5038754;28;20403;-32
2022/04/28 05:10:44;;;;;;;2.50;2.30;;;3.10;99.90;;;;;;5037165;28;20039;-32
2022/04/28 05:13:11;;;;;;;2.13;2.03;;;3.20;99.90;;;;;;5041254;28;20503;-32
2022/04/28 05:15:36;;;;;;;2.92;2.60;;;3.20;99.90;;;;;;5043104;28;20097;-32
2022/04/28 05:18:02;;;;;;;2.72;2.50;;;3.20;99.90;;;;;;5039033;28;20024;-32
2022/04/28 05:20:28;;;;;;;6.72;3.45;;;3.10;99.90;;;;;;5040940;28;20032;-33
2022/04/28 05:22:53;;;;;;;8.45;4.57;;;3.10;99.90;;;;;;5041819;28;20089;-32
2022/04/28 05:25:19;;;;;;;8.18;4.85;;;3.10;99.90;;;;;;5043068;28;21588;-32
2022/04/28 05:27:44;;;;;;;6.35;4.60;;;3.10;99.90;;;;;;5044591;28;20386;-32
2022/04/28 05:30:10;;;;;;;6.57;4.50;;;3.10;99.90;;;;;;5033981;28;20316;-32
2022/04/28 05:32:36;;;;;;;6.53;4.32;;;3.10;99.90;;;;;;5039775;28;20051;-32
2022/04/28 05:35:01;;;;;;;9.45;5.93;;;3.30;99.90;;;;;;5038718;28;20040;-32
2022/04/28 05:37:27;;;;;;;9.35;5.63;;;3.40;99.90;;;;;;5038026;28;20043;-32
2022/04/28 05:39:53;;;;;;;9.85;6.70;;;3.50;99.90;;;;;;5045390;28;20036;-33
2022/04/28 05:42:18;;;;;;;9.05;5.97;;;3.60;99.90;;;;;;5037630;28;20592;-32
2022/04/28 05:47:29;;;;;;;13.82;7.32;;;3.90;99.90;;;;;;5037815;28;20036;-32
2022/04/28 05:49:55;;;;;;;10.55;6.65;;;4.20;99.90;;;;;;5036411;28;20410;-32
2022/04/28 05:52:21;;;;;;;13.75;7.10;;;4.40;99.90;;;;;;5040582;28;20035;-32
2022/04/28 05:54:47;;;;;;;11.52;7.28;;;4.60;99.90;;;;;;5040424;28;20660;-32
2022/04/28 05:57:12;;;;;;;12.45;7.20;;;4.80;99.90;;;;;;5040100;28;20516;-33
2022/04/28 05:59:39;;;;;;;16.70;8.60;;;5.00;99.90;;;;;;5040591;28;20042;-33
2022/04/28 06:02:06;;;;;;;15.82;8.13;;;5.20;99.90;;;;;;5034559;28;20037;-33
2022/04/28 06:04:32;;;;;;;17.00;9.43;;;5.30;99.90;;;;;;5038829;28;20041;-33
2022/04/28 06:06:57;;;;;;;15.07;9.88;;;5.60;99.90;;;;;;5039188;28;20474;-32
2022/04/28 06:09:23;;;;;;;21.85;10.50;;;5.80;99.90;;;;;;5040991;28;20074;-33
2022/04/28 06:11:49;;;;;;;16.42;10.20;;;6.10;99.90;;;;;;5038789;28;20104;-32
2022/04/28 06:14:14;;;;;;;21.88;11.13;;;6.30;99.90;;;;;;5039340;28;20021;-32
2022/04/28 06:16:41;;;;;;;24.85;11.45;;;6.50;99.90;;;;;;5038629;28;23225;-33
2022/04/28 06:19:07;;;;;;;22.02;10.93;;;6.70;99.90;;;;;;5041732;28;20114;-32
2022/04/28 06:21:32;;;;;;;24.38;12.63;;;6.90;99.90;;;;;;5035678;28;20151;-33
2022/04/28 06:23:58;;;;;;;20.15;11.50;;;7.20;99.90;;;;;;5037165;28;20029;-32
2022/04/28 06:26:23;;;;;;;20.05;11.40;;;7.30;99.90;;;;;;5041762;28;20052;-32
2022/04/28 06:28:49;;;;;;;22.02;12.65;;;7.40;99.90;;;;;;5037994;28;20477;-32
2022/04/28 06:31:15;;;;;;;21.70;11.73;;;7.60;99.90;;;;;;5039488;28;20028;-32
2022/04/28 06:33:41;;;;;;;19.80;11.80;;;7.80;99.90;;;;;;5042288;28;20047;-32
2022/04/28 06:36:07;;;;;;;21.25;11.50;;;8.00;99.90;;;;;;5038033;28;20029;-32
2022/04/28 06:38:32;;;;;;;18.88;11.65;;;8.10;99.90;;;;;;5038670;28;20028;-32
2022/04/28 06:40:58;;;;;;;21.08;11.98;;;8.20;99.90;;;;;;5032960;28;20033;-32
2022/04/28 06:43:24;;;;;;;20.92;11.73;;;8.40;99.90;;;;;;5034045;28;20476;-32
2022/04/28 06:48:34;;;;;;;20.13;11.93;;;8.80;99.90;;;;;;5035472;28;20037;-32
2022/04/28 06:50:59;;;;;;;20.45;12.07;;;9.10;99.90;;;;;;5044791;28;20024;-33
2022/04/28 06:53:25;;;;;;;19.00;11.07;;;9.30;99.90;;;;;;5037291;28;20025;-32
2022/04/28 06:55:51;;;;;;;15.88;9.32;;;9.50;99.90;;;;;;5043691;28;20029;-32
2022/04/28 06:58:17;;;;;;;15.20;9.75;;;9.60;99.90;;;;;;5041046;28;20013;-33
2022/04/28 07:00:43;;;;;;;14.20;8.90;;;9.80;99.90;;;;;;5038647;28;20032;-32
2022/04/28 07:03:09;;;;;;;13.73;8.93;;;9.90;99.90;;;;;;5037773;28;20056;-32
2022/04/28 07:05:35;;;;;;;15.63;8.98;;;10.00;99.90;;;;;;5033002;28;20112;-34
2022/04/28 07:08:00;;;;;;;15.98;9.77;;;10.20;99.90;;;;;;5038411;28;20577;-32
2022/04/28 07:10:26;;;;;;;11.43;8.32;;;10.20;99.90;;;;;;5039380;28;20825;-33
2022/04/28 07:12:52;;;;;;;13.48;8.43;;;10.40;99.90;;;;;;5034967;28;20174;-32
2022/04/28 07:15:17;;;;;;;14.15;8.60;;;10.60;99.90;;;;;;5038115;28;20853;-32
2022/04/28 07:17:43;;;;;;;14.57;8.32;;;10.60;99.90;;;;;;5042405;28;20033;-33
2022/04/28 07:20:09;;;;;;;12.45;7.78;;;10.70;99.90;;;;;;5036981;28;20120;-32
2022/04/28 07:22:34;;;;;;;10.70;6.28;;;10.90;99.90;;;;;;5036369;28;20036;-32
2022/04/28 07:25:00;;;;;;;10.25;6.72;;;11.00;99.90;;;;;;5038477;28;20036;-32
2022/04/28 07:27:25;;;;;;;15.75;7.63;;;11.00;99.90;;;;;;5037241;28;20025;-33
2022/04/28 07:29:51;;;;;;;10.95;7.15;;;11.00;99.90;;;;;;5036051;28;20052;-32
2022/04/28 07:32:17;;;;;;;10.00;7.47;;;11.10;99.90;;;;;;5042129;28;20048;-32
2022/04/28 07:34:42;;;;;;;10.60;7.22;;;11.20;99.90;;;;;;5039898;28;20131;-32
2022/04/28 07:37:08;;;;;;;9.85;6.40;;;11.40;99.90;;;;;;5044270;28;20064;-32
2022/04/28 07:39:33;;;;;;;9.35;6.43;;;11.40;99.90;;;;;;5033769;28;20060;-33
2022/04/28 07:41:59;;;;;;;12.27;7.40;;;11.40;99.90;;;;;;5040060;28;20055;-32
2022/04/28 07:44:25;;;;;;;10.45;6.35;;;11.50;99.90;;;;;;5043143;28;20048;-32
2022/04/28 07:46:52;;;;;;;12.38;7.88;;;11.60;99.90;;;;;;5012721;28;20050;-33
2022/04/28 07:49:17;;;;;;;9.57;6.72;;;11.70;99.90;;;;;;5015517;28;20033;-32
2022/04/28 07:51:43;;;;;;;14.95;7.20;;;11.80;99.90;;;;;;5011996;28;20471;-32
2022/04/28 07:54:09;;;;;;;11.82;6.65;;;11.90;99.90;;;;;;5013670;28;20033;-32
2022/04/28 07:56:34;;;;;;;9.63;6.13;;;12.10;99.90;;;;;;5016343;28;20026;-32
2022/04/28 07:59:00;;;;;;;13.05;7.00;;;12.10;99.60;;;;;;5013998;28;20025;-32
2022/04/28 08:01:25;;;;;;;8.77;5.70;;;12.10;99.60;;;;;;5011901;28;20033;-32
2022/04/28 08:03:51;;;;;;;9.60;6.25;;;12.10;99.90;;;;;;5015811;28;20052;-32
2022/04/28 08:06:17;;;;;;;8.35;6.03;;;12.10;97.80;;;;;;5012791;28;20108;-32
2022/04/28 08:08:42;;;;;;;10.93;6.38;;;12.30;93.80;;;;;;5022444;28;20061;-33
2022/04/28 08:11:08;;;;;;;10.63;6.70;;;12.40;99.70;;;;;;5019304;28;20030;-32
2022/04/28 08:13:34;;;;;;;11.43;6.40;;;12.60;99.90;;;;;;5012633;28;20025;-33
2022/04/28 08:16:01;;;;;;;10.45;7.22;;;12.70;95.20;;;;;;5018326;28;20253;-32
2022/04/28 08:18:29;;;;;;;11.77;6.68;;;12.70;97.00;;;;;;5014077;28;20096;-32
2022/04/28 08:20:55;;;;;;;9.73;6.80;;;12.80;96.70;;;;;;5016633;28;20140;-32
2022/04/28 08:23:20;;;;;;;8.27;6.30;;;12.80;99.90;;;;;;5019250;28;20028;-32
2022/04/28 08:25:47;;;;;;;9.23;6.30;;;12.70;96.30;;;;;;5016217;28;20038;-32
2022/04/28 08:28:13;;;;;;;11.93;6.45;;;12.70;96.50;;;;;;5016559;28;20056;-32
2022/04/28 08:30:38;;;;;;;8.10;6.13;;;12.80;96.90;;;;;;5016366;28;20026;-32
2022/04/28 08:33:05;;;;;;;8.43;6.22;;;12.90;95.00;;;;;;5012601;28;20747;-33
2022/04/28 08:35:31;;;;;;;10.82;7.03;;;12.90;94.40;;;;;;5018116;28;20037;-32
2022/04/28 08:37:57;;;;;;;12.25;6.45;;;13.10;97.10;;;;;;5018306;28;20044;-32
2022/04/28 08:40:24;;;;;;;9.30;5.68;;;13.10;83.30;;;;;;5015921;28;20057;-32
2022/04/28 08:42:50;;;;;;;10.35;6.20;;;13.20;93.20;;;;;;5018785;28;21042;-32
2022/04/28 08:45:26;;;;;;;8.73;5.82;;;13.50;94.90;;;;;;5015146;28;20096;-32
2022/04/28 08:47:56;;;;;;;10.80;6.60;;;13.80;93.00;;;;;;5020911;28;20029;-32
2022/04/28 08:50:22;;;;;;;7.53;6.03;;;13.60;73.80;;;;;;5022124;28;20060;-32
2022/04/28 08:52:49;;;;;;;7.00;5.38;;;13.50;94.80;;;;;;5020294;28;20468;-33
2022/04/28 08:55:16;;;;;;;8.85;6.38;;;13.60;84.50;;;;;;5024884;28;20029;-32
2022/04/28 08:57:42;;;;;;;9.98;6.38;;;13.70;94.80;;;;;;5021120;28;20478;-32
2022/04/28 09:00:09;;;;;;;9.10;5.20;;;13.80;92.50;;;;;;5020903;28;20037;-32
2022/04/28 09:02:34;;;;;;;8.43;5.97;;;14.00;81.10;;;;;;5020120;28;20068;-33
2022/04/28 09:05:05;;;;;;;8.48;5.65;;;14.00;79.30;;;;;;5019039;28;20494;-32
2022/04/28 09:07:37;;;;;;;8.10;5.15;;;13.90;85.70;;;;;;5016519;28;20049;-32
2022/04/28 09:10:25;;;;;;;8.25;5.78;;;13.80;65.90;;;;;;5019514;28;20128;-32
2022/04/28 09:12:58;;;;;;;;;;;13.90;70.50;;;;;;5021218;28;20029;-33
2022/04/28 09:15:23;;;;;;;7.20;5.18;;;14.20;82.30;;;;;;5020755;28;20012;-33
2022/04/28 09:17:49;;;;;;;8.27;5.28;;;14.00;63.80;;;;;;5019352;28;20043;-32
2022/04/28 09:20:15;;;;;;;7.60;5.47;;;13.90;63.30;;;;;;5016501;28;20095;-32
2022/04/28 09:22:42;;;;;;;5.72;4.63;;;14.00;69.30;;;;;;5014433;28;20048;-32
2022/04/28 09:25:09;;;;;;;7.10;5.10;;;13.80;62.30;;;;;;5017941;28;20041;-33
2022/04/28 09:27:35;;;;;;;8.65;5.35;;;13.60;67.90;;;;;;5016549;28;21308;-32
2022/04/28 09:30:00;;;;;;;9.02;5.40;;;13.60;70.80;;;;;;5017488;28;20029;-32
2022/04/28 09:32:27;;;;;;;5.90;4.80;;;13.80;72.70;;;;;;5018714;28;20532;-32
2022/04/28 09:34:53;;;;;;;8.10;5.55;;;13.90;75.50;;;;;;5018796;28;20553;-32
2022/04/28 09:37:26;;;;;;;8.02;5.43;;;13.80;63.00;;;;;;5021335;28;20033;-32
2022/04/28 09:42:41;;;;;;;5.50;3.95;;;14.60;61.00;;;;;;5018026;28;20064;-32
2022/04/28 09:45:09;;;;;;;7.20;4.13;;;14.60;58.50;;;;;;5016999;28;20410;-32
2022/04/28 09:47:36;;;;;;;5.93;5.00;;;14.60;59.10;;;;;;5019954;28;20391;-32
2022/04/28 09:50:15;;;;;;;6.43;5.40;;;14.50;55.70;;;;;;5018275;28;20028;-32
2022/04/28 09:52:43;;;;;;;7.05;5.22;;;14.80;64.30;;;;;;5020106;28;20041;-33
2022/04/28 09:55:10;;;;;;;6.80;4.60;;;14.70;56.80;;;;;;5018148;28;20398;-33
2022/04/28 09:57:36;;;;;;;6.07;4.53;;;14.80;59.80;;;;;;5013076;28;20061;-32
2022/04/28 10:00:02;;;;;;;7.07;4.82;;;14.70;57.90;;;;;;5016735;28;20565;-32
2022/04/28 10:02:28;;;;;;;9.10;5.25;;;14.10;59.30;;;;;;5021369;28;20037;-32
2022/04/28 10:04:55;;;;;;;7.20;4.90;;;14.50;64.00;;;;;;5022701;28;20060;-32
2022/04/28 10:07:22;;;;;;;7.65;5.60;;;14.50;55.60;;;;;;5018891;28;20299;-32
2022/04/28 10:09:50;;;;;;;6.13;4.40;;;14.40;58.50;;;;;;5013415;28;20578;-32
2022/04/28 10:12:19;;;;;;;8.15;4.60;;;14.50;65.70;;;;;;5012991;28;20036;-33
2022/04/28 10:14:46;;;;;;;5.18;4.07;;;14.80;55.00;;;;;;5016138;28;20473;-32
2022/04/28 10:17:21;;;;;;;5.22;3.67;;;14.70;51.30;;;;;;5016351;28;20159;-32
2022/04/28 10:19:52;;;;;;;4.10;3.30;;;14.40;57.20;;;;;;5014373;28;20379;-32
2022/04/28 10:22:21;;;;;;;3.63;3.25;;;14.60;53.50;;;;;;5011900;28;20026;-32
2022/04/28 10:33:19;;;;;;;5.30;3.25;;;15.10;52.00;;;;;;5015964;28;20444;-32
2022/04/28 10:35:49;;;;;;;5.68;4.07;;;15.30;51.60;;;;;;5020309;28;20881;-32
2022/04/28 10:38:22;;;;;;;5.82;4.13;;;15.30;49.90;;;;;;5018833;28;20029;-32
2022/04/28 10:41:01;;;;;;;5.72;3.88;;;15.50;54.40;;;;;;5018254;28;20028;-32
2022/04/28 10:43:32;;;;;;;9.25;5.18;;;15.60;54.60;;;;;;5016503;28;20053;-32
2022/04/28 10:46:28;;;;;;;5.13;4.53;;;15.40;59.00;;;;;;5019156;28;20032;-33
2022/04/28 10:49:00;;;;;;;9.07;4.10;;;15.50;52.30;;;;;;5013630;28;20045;-32
2022/04/28 10:51:30;;;;;;;5.93;4.47;;;15.50;57.00;;;;;;5017117;28;20037;-33
2022/04/28 10:54:03;;;;;;;7.13;4.95;;;15.80;59.10;;;;;;5017223;28;20040;-32
2022/04/28 10:56:56;;;;;;;6.53;4.85;;;15.80;54.70;;;;;;5023654;28;20429;-32
2022/04/28 10:59:34;;;;;;;6.18;5.07;;;15.60;59.50;;;;;;5018805;28;20037;-32
2022/04/28 11:02:15;;;;;;;;;;;15.70;62.30;;;;;;5017963;28;20037;-33
2022/04/28 11:04:52;;;;;;;5.47;4.40;;;15.70;58.00;;;;;;5017383;28;20347;-32
2022/04/28 11:07:24;;;;;;;6.72;4.60;;;15.60;58.00;;;;;;5017478;28;20033;-32
2022/04/28 11:10:13;;;;;;;5.03;3.90;;;15.90;61.70;;;;;;5016521;28;20454;-32
2022/04/28 11:12:42;;;;;;;6.07;4.85;;;15.80;49.50;;;;;;5018397;28;20032;-33
2022/04/28 11:15:10;;;;;;;5.90;4.30;;;15.30;52.50;;;;;;5018284;28;20036;-32
2022/04/28 11:17:38;;;;;;;5.03;4.10;;;15.00;54.30;;;;;;5017980;28;20051;-34
2022/04/28 11:20:12;;;;;;;4.70;4.03;;;15.10;61.20;;;;;;5019703;28;20144;-33
2022/04/28 11:22:51;;;;;;;5.68;4.88;;;15.10;57.10;;;;;;5018586;28;20033;-32
2022/04/28 11:25:18;;;;;;;7.63;4.72;;;14.90;52.60;;;;;;5018816;28;20036;-32
2022/04/28 11:27:46;;;;;;;7.67;5.03;;;14.90;53.60;;;;;;5016740;28;20402;-33
2022/04/28 11:30:15;;;;;;;6.10;4.57;;;14.90;52.50;;;;;;5014702;28;20029;-33
2022/04/28 11:32:52;;;;;;;5.32;4.50;;;14.80;53.30;;;;;;5014485;28;20025;-33
2022/04/28 11:35:19;;;;;;;5.57;4.53;;;14.90;54.60;;;;;;5017164;28;20028;-32
2022/04/28 11:37:45;;;;;;;6.22;4.40;;;15.10;55.60;;;;;;5018313;28;20033;-32
2022/04/28 11:40:16;;;;;;;5.20;4.20;;;15.10;57.50;;;;;;5019143;28;20065;-32
2022/04/28 11:42:42;;;;;;;6.75;4.65;;;15.00;54.50;;;;;;5013175;28;20053;-32
2022/04/28 11:45:08;;;;;;;5.05;4.22;;;15.00;51.10;;;;;;5045288;28;20065;-32
2022/04/28 11:47:42;;;;;;;5.03;3.58;;;15.10;54.20;;;;;;5017336;28;20036;-32
2022/04/28 11:50:16;;;;;;;5.22;4.40;;;15.50;61.00;;;;;;5017349;28;20029;-33
2022/04/28 11:52:42;;;;;;;7.03;4.65;;;15.40;51.40;;;;;;5017774;28;20029;-33
2022/04/28 11:55:09;;;;;;;4.32;3.55;;;15.60;51.20;;;;;;5016294;28;20395;-33
2022/04/28 11:57:41;;;;;;;5.07;4.03;;;15.70;49.00;;;;;;5018113;28;20065;-33
2022/04/28 12:00:09;;;;;;;5.25;3.65;;;15.70;50.10;;;;;;5017396;28;20042;-32
2022/04/28 12:02:38;;;;;;;6.13;4.47;;;15.90;56.10;;;;;;5014284;28;20046;-32
2022/04/28 12:05:15;;;;;;;5.63;4.32;;;16.10;51.00;;;;;;5017335;28;20508;-32
2022/04/28 12:07:50;;;;;;;7.90;4.75;;;16.00;50.70;;;;;;5018426;28;20025;-32
2022/04/28 12:15:53;;;;;;;4.47;3.83;;;16.00;50.20;;;;;;5018544;28;20163;-32
2022/04/28 12:21:23;;;;;;;5.82;4.32;;;16.20;51.50;;;;;;5018081;28;20072;-33
2022/04/28 12:23:55;;;;;;;6.03;4.60;;;16.20;47.10;;;;;;5019486;28;20034;-32
2022/04/28 12:26:26;;;;;;;6.22;4.47;;;16.20;48.60;;;;;;5022783;28;20112;-33
2022/04/28 12:28:52;;;;;;;7.85;5.15;;;16.40;55.40;;;;;;5020226;28;20028;-33
2022/04/28 12:31:31;;;;;;;5.50;4.38;;;16.30;52.40;;;;;;5020093;28;20038;-32
2022/04/28 12:33:59;;;;;;;6.55;4.60;;;15.70;52.20;;;;;;5024857;28;20785;-32
2022/04/28 12:36:25;;;;;;;;;;;15.70;55.80;;;;;;5022693;28;20530;-32
2022/04/28 12:38:53;;;;;;;6.38;4.05;;;15.80;55.10;;;;;;5023467;28;19921;-33
2022/04/28 12:41:27;;;;;;;5.03;4.03;;;16.00;55.90;;;;;;5025555;28;20474;-32
2022/04/28 12:43:56;;;;;;;5.68;4.20;;;16.00;56.20;;;;;;5025527;28;20362;-32
2022/04/28 12:46:33;;;;;;;4.57;3.95;;;16.00;53.80;;;;;;5023783;28;20067;-32
2022/04/28 12:49:01;;;;;;;8.57;4.80;;;16.00;50.60;;;;;;5024859;28;20474;-33
2022/04/28 12:51:27;;;;;;;9.70;5.20;;;16.10;52.60;;;;;;5024886;28;20036;-32
2022/04/28 12:54:14;;;;;;;5.75;4.00;;;16.30;49.30;;;;;;5025477;28;20113;-32
2022/04/28 12:56:43;;;;;;;4.55;4.03;;;16.30;45.60;;;;;;5023605;28;20135;-32
2022/04/28 12:59:10;;;;;;;6.65;4.38;;;16.20;48.70;;;;;;5024621;28;20041;-33
2022/04/28 13:01:38;;;;;;;5.25;3.88;;;16.40;51.40;;;;;;5026138;28;20045;-33
2022/04/28 13:04:06;;;;;;;5.10;3.58;;;16.50;51.70;;;;;;5024468;28;20473;-32
2022/04/28 13:06:37;;;;;;;2.72;2.45;;;16.60;47.60;;;;;;5023607;28;20046;-32
2022/04/28 13:09:04;;;;;;;9.95;4.20;;;16.60;42.70;;;;;;5025351;28;20382;-32
2022/04/28 13:11:32;;;;;;;4.30;3.90;;;17.00;48.30;;;;;;5024979;28;20556;-32
2022/04/28 13:14:00;;;;;;;8.32;5.15;;;17.20;50.60;;;;;;5023580;28;20029;-32
2022/04/28 13:16:27;;;;;;;6.15;4.32;;;17.00;49.00;;;;;;5023617;28;20914;-32
2022/04/28 13:18:54;;;;;;;5.03;4.43;;;16.60;47.80;;;;;;5024550;28;20083;-32
2022/04/28 13:21:20;;;;;;;7.45;4.47;;;16.20;47.20;;;;;;5023192;28;20083;-33
2022/04/28 13:23:46;;;;;;;5.18;4.35;;;16.30;49.80;;;;;;5023896;28;20033;-32
2022/04/28 13:26:14;;;;;;;6.13;3.80;;;16.30;48.60;;;;;;5024119;28;20122;-32
2022/04/28 13:28:40;;;;;;;4.18;3.58;;;16.60;47.40;;;;;;5024587;28;20040;-33